createdAt,value
2023-02-13T00:00:09.688Z,85.95
2023-02-13T00:02:36.462Z,76.15
2023-02-13T00:05:03.388Z,82.55
2023-02-13T00:07:30.208Z,89.18
2023-02-13T00:09:56.976Z,89.25
2023-02-13T00:12:23.701Z,86.93
2023-02-13T00:14:50.585Z,82.35
2023-02-13T00:17:17.486Z,92.18
2023-02-13T00:19:44.175Z,94.25
2023-02-13T00:22:11.348Z,85.30
2023-02-13T00:24:38.094Z,85.60
2023-02-13T00:27:04.916Z,83.57
2023-02-13T00:29:31.621Z,88.32
2023-02-13T00:31:58.397Z,93.53
2023-02-13T00:34:25.101Z,89.35
2023-02-13T00:36:52.459Z,85.85
2023-02-13T00:39:19.418Z,86.72
2023-02-13T00:41:46.381Z,85.53
2023-02-13T00:44:13.195Z,90.28
2023-02-13T00:46:40.147Z,86.60
2023-02-13T00:49:07.228Z,86.97
2023-02-13T00:51:34.663Z,86.35
2023-02-13T00:54:01.382Z,87.95
2023-02-13T00:56:28.179Z,86.38
2023-02-13T00:58:54.882Z,83.18
2023-02-13T01:01:24.086Z,84.60
2023-02-13T01:03:50.866Z,84.15
2023-02-13T01:06:17.624Z,81.97
2023-02-13T01:08:44.356Z,81.50
2023-02-13T01:11:11.385Z,82.70
2023-02-13T01:13:38.139Z,82.75
2023-02-13T01:16:05.079Z,91.93
2023-02-13T01:18:31.877Z,89.72
2023-02-13T01:21:06.861Z,92.32
2023-02-13T01:23:34.660Z,89.93
2023-02-13T01:26:03.090Z,89.03
2023-02-13T01:28:29.914Z,88.53
2023-02-13T01:30:57.610Z,82.45
2023-02-13T01:33:25.774Z,96.88
2023-02-13T01:35:52.946Z,89.57
2023-02-13T01:38:19.892Z,100.05
2023-02-13T01:40:53.831Z,87.40
2023-02-13T01:45:53.213Z,89.10
2023-02-13T01:48:21.284Z,89.65
2023-02-13T01:50:54.503Z,88.68
2023-02-13T01:53:21.719Z,92.22
2023-02-13T01:55:58.537Z,86.25
2023-02-13T01:58:28.122Z,85.53
2023-02-13T02:00:55.232Z,90.18
2023-02-13T02:03:31.533Z,83.13
2023-02-13T02:06:05.023Z,84.97
2023-02-13T02:08:34.652Z,79.72
2023-02-13T02:11:06.184Z,83.07
2023-02-13T02:13:32.940Z,89.20
2023-02-13T02:16:06.128Z,83.80
2023-02-13T02:18:33.894Z,87.85
2023-02-13T02:21:30.231Z,98.82
2023-02-13T02:24:05.872Z,89.95
2023-02-13T02:26:52.293Z,88.25
2023-02-13T02:29:19.112Z,83.20
2023-02-13T02:31:55.231Z,86.95
2023-02-13T02:34:37.434Z,87.47
2023-02-13T02:37:10.416Z,92.07
2023-02-13T02:39:52.563Z,81.95
2023-02-13T02:42:19.335Z,84.32
2023-02-13T02:44:52.617Z,86.55
2023-02-13T02:47:40.859Z,84.68
2023-02-13T02:50:15.007Z,88.30
2023-02-13T02:52:51.470Z,81.47
2023-02-13T02:55:24.191Z,89.78
2023-02-13T02:58:38.962Z,89.38
2023-02-13T03:01:26.696Z,82.55
2023-02-13T03:04:16.136Z,82.25
2023-02-13T03:06:54.868Z,86.18
2023-02-13T03:09:43.004Z,86.72
2023-02-13T03:12:30.291Z,87.32
2023-02-13T03:14:57.156Z,89.28
2023-02-13T03:17:42.242Z,89.25
2023-02-13T03:20:30.942Z,79.78
2023-02-13T03:23:02.015Z,88.50
2023-02-13T03:25:41.046Z,84.13
2023-02-13T03:28:26.422Z,85.88
2023-02-13T03:31:02.352Z,88.40
2023-02-13T03:33:49.955Z,94.95
2023-02-13T03:36:46.424Z,87.32
2023-02-13T03:39:16.616Z,89.47
2023-02-13T03:42:04.242Z,88.25
2023-02-13T03:44:33.432Z,87.40
2023-02-13T03:47:02.158Z,89.43
2023-02-13T03:49:49.948Z,83.38
2023-02-13T03:52:23.990Z,86.65
2023-02-13T03:55:32.640Z,84.15
2023-02-13T03:58:21.729Z,90.00
2023-02-13T04:00:50.771Z,82.35
2023-02-13T04:03:37.387Z,90.57
2023-02-13T04:06:10.501Z,86.22
2023-02-13T04:08:37.780Z,80.72
2023-02-13T04:11:15.216Z,85.85
2023-02-13T04:13:50.256Z,85.85
2023-02-13T04:16:21.070Z,79.15
2023-02-13T04:18:48.850Z,90.03
2023-02-13T04:21:15.567Z,80.32
2023-02-13T04:23:42.295Z,85.43
2023-02-13T04:26:13.910Z,83.13
2023-02-13T04:28:43.199Z,81.80
2023-02-13T04:31:10.116Z,76.72
2023-02-13T04:33:36.947Z,74.88
2023-02-13T04:36:03.827Z,77.43
2023-02-13T04:38:30.610Z,86.40
2023-02-13T04:40:58.043Z,83.60
2023-02-13T04:43:25.415Z,82.32
2023-02-13T04:45:52.188Z,81.95
2023-02-13T04:48:18.919Z,84.00
2023-02-13T04:50:45.607Z,85.43
2023-02-13T04:53:12.342Z,86.10
2023-02-13T04:55:41.146Z,87.68
2023-02-13T04:58:10.006Z,84.47
2023-02-13T05:00:37.673Z,88.25
2023-02-13T05:03:05.479Z,89.93
2023-02-13T05:05:32.297Z,84.75
2023-02-13T05:08:00.781Z,90.28
2023-02-13T05:10:28.377Z,84.18
2023-02-13T05:12:55.121Z,85.53
2023-02-13T05:15:23.566Z,84.50
2023-02-13T05:17:50.881Z,83.70
2023-02-13T05:20:17.896Z,87.88
2023-02-13T05:23:04.689Z,88.30
2023-02-13T05:25:31.550Z,79.95
2023-02-13T05:27:58.331Z,79.85
2023-02-13T05:30:25.184Z,82.00
2023-02-13T05:32:52.001Z,82.85
2023-02-13T05:35:18.976Z,77.57
2023-02-13T05:37:45.982Z,80.88
2023-02-13T05:40:13.573Z,81.95
2023-02-13T05:42:41.136Z,85.90
2023-02-13T05:45:08.250Z,90.55
2023-02-13T05:47:35.357Z,78.47
2023-02-13T05:50:02.274Z,81.95
2023-02-13T05:52:32.907Z,83.03
2023-02-13T05:55:00.332Z,89.85
2023-02-13T05:57:27.193Z,87.00
2023-02-13T05:59:55.589Z,91.40
2023-02-13T06:02:22.274Z,85.85
2023-02-13T06:04:48.963Z,80.78
2023-02-13T06:07:15.759Z,95.65
2023-02-13T06:09:45.073Z,91.57
2023-02-13T06:12:11.738Z,87.75
2023-02-13T06:14:38.623Z,103.40
2023-02-13T06:17:05.517Z,88.57
2023-02-13T06:19:32.312Z,95.75
2023-02-13T06:21:59.155Z,91.45
2023-02-13T06:24:26.183Z,90.72
2023-02-13T06:26:53.048Z,86.97
2023-02-13T06:29:19.795Z,85.45
2023-02-13T06:31:46.616Z,87.45
2023-02-13T06:34:15.443Z,85.95
2023-02-13T06:36:42.842Z,92.93
2023-02-13T06:39:10.945Z,94.97
2023-02-13T06:41:37.637Z,84.85
2023-02-13T06:44:04.599Z,88.07
2023-02-13T06:46:31.407Z,91.72
2023-02-13T06:48:58.207Z,89.70
2023-02-13T06:51:25.053Z,90.55
2023-02-13T06:53:54.267Z,86.28
2023-02-13T06:56:21.355Z,88.85
2023-02-13T06:58:48.906Z,101.85
2023-02-13T07:01:16.705Z,82.28
2023-02-13T07:03:44.162Z,93.68
2023-02-13T07:06:11.097Z,87.80
2023-02-13T07:08:37.829Z,87.10
2023-02-13T07:11:04.667Z,88.25
2023-02-13T07:13:31.404Z,90.88
2023-02-13T07:16:01.111Z,87.30
2023-02-13T07:18:28.171Z,92.72
2023-02-13T07:20:55.451Z,93.78
2023-02-13T07:23:22.874Z,88.60
2023-02-13T07:25:49.672Z,85.72
2023-02-13T07:28:17.821Z,97.45
2023-02-13T07:30:44.631Z,95.43
2023-02-13T07:33:50.152Z,87.97
2023-02-13T07:36:27.976Z,89.15
2023-02-13T07:38:54.899Z,93.32
2023-02-13T07:41:21.938Z,83.40
2023-02-13T07:43:49.158Z,108.13
2023-02-13T07:46:16.088Z,90.60
2023-02-13T07:48:52.712Z,94.72
2023-02-13T07:51:25.520Z,86.07
2023-02-13T07:53:53.152Z,80.97
2023-02-13T07:56:20.872Z,89.18
2023-02-13T07:58:49.620Z,107.13
2023-02-13T08:01:17.164Z,89.80
2023-02-13T08:03:50.412Z,97.53
2023-02-13T08:06:19.372Z,104.78
2023-02-13T08:08:46.874Z,110.15
2023-02-13T08:11:55.995Z,103.63
2023-02-13T08:14:24.006Z,99.93
2023-02-13T08:16:51.330Z,97.03
2023-02-13T08:19:28.135Z,103.68
2023-02-13T08:22:01.639Z,104.82
2023-02-13T08:24:32.551Z,92.13
2023-02-13T08:27:02.769Z,100.30
2023-02-13T08:29:30.397Z,88.30
2023-02-13T08:31:58.117Z,89.35
2023-02-13T08:34:30.978Z,96.28
2023-02-13T08:37:20.191Z,81.47
2023-02-13T08:57:59.752Z,81.80
2023-02-13T09:01:02.480Z,79.25
2023-02-13T09:07:48.581Z,83.65
2023-02-13T09:10:18.298Z,87.15
2023-02-13T09:12:45.252Z,83.10
2023-02-13T09:15:48.960Z,84.10
2023-02-13T09:20:09.667Z,86.50
2023-02-13T09:24:01.548Z,91.65
2023-02-13T09:27:24.629Z,84.95
2023-02-13T09:31:13.134Z,85.63
2023-02-13T09:44:13.196Z,90.70
2023-02-13T09:47:54.224Z,90.65
2023-02-13T09:50:28.009Z,99.05
2023-02-13T09:52:56.116Z,97.35
2023-02-13T09:55:50.796Z,96.43
2023-02-13T09:58:39.597Z,96.22
2023-02-13T10:01:13.102Z,95.10
2023-02-13T10:03:44.808Z,98.72
2023-02-13T10:06:18.340Z,100.93
2023-02-13T10:09:10.125Z,95.55
2023-02-13T10:11:45.561Z,101.93
2023-02-13T10:14:35.724Z,102.43
2023-02-13T10:17:12.430Z,103.88
2023-02-13T10:19:55.598Z,90.47
2023-02-13T10:25:19.145Z,105.10
2023-02-13T10:27:57.253Z,100.65
2023-02-13T10:30:31.735Z,98.78
2023-02-13T10:33:18.540Z,105.72
2023-02-13T10:36:04.410Z,100.00
2023-02-13T10:38:36.462Z,101.20
2023-02-13T10:41:25.215Z,101.32
2023-02-13T10:43:57.851Z,91.03
2023-02-13T10:46:32.469Z,104.47
2023-02-13T10:49:22.370Z,99.50
2023-02-13T10:52:08.392Z,96.43
2023-02-13T10:54:54.161Z,97.45
2023-02-13T10:57:44.332Z,107.30
2023-02-13T11:00:12.851Z,108.38
2023-02-13T11:02:45.599Z,105.72
2023-02-13T11:05:18.174Z,106.70
2023-02-13T11:07:49.234Z,104.10
2023-02-13T11:10:18.052Z,107.13
2023-02-13T11:12:45.639Z,95.47
2023-02-13T11:15:33.813Z,95.10
2023-02-13T11:18:06.127Z,97.97
2023-02-13T11:20:38.734Z,98.85
2023-02-13T11:23:15.071Z,96.80
2023-02-13T11:25:53.485Z,94.38
2023-02-13T11:31:38.851Z,88.95
2023-02-13T11:34:43.329Z,99.28
2023-02-13T11:37:41.494Z,95.18
2023-02-13T11:40:27.292Z,97.97
2023-02-13T11:42:57.449Z,98.60
2023-02-13T11:45:28.870Z,90.95
2023-02-13T11:47:56.189Z,87.03
2023-02-13T11:50:29.477Z,90.07
2023-02-13T11:53:01.520Z,97.30
2023-02-13T11:55:42.477Z,91.90
2023-02-13T11:58:11.379Z,93.97
2023-02-13T12:00:41.779Z,88.35
2023-02-13T12:03:35.654Z,94.25
2023-02-13T12:06:14.149Z,92.28
2023-02-13T12:08:45.027Z,96.70
2023-02-13T12:11:19.979Z,96.63
2023-02-13T12:13:47.974Z,94.50
2023-02-13T12:16:26.566Z,88.07
2023-02-13T12:18:56.116Z,86.60
2023-02-13T12:21:23.150Z,92.10
2023-02-13T12:23:56.297Z,84.68
2023-02-13T12:26:29.616Z,87.03
2023-02-13T12:29:24.416Z,84.43
2023-02-13T12:32:11.067Z,97.45
2023-02-13T12:34:44.835Z,84.95
2023-02-13T12:37:16.532Z,92.82
2023-02-13T12:39:55.610Z,95.10
2023-02-13T12:42:46.291Z,91.28
2023-02-13T12:45:54.630Z,88.00
2023-02-13T12:48:42.748Z,83.32
2023-02-13T12:51:18.587Z,82.75
2023-02-13T12:54:00.986Z,78.07
2023-02-13T12:56:41.100Z,85.95
2023-02-13T12:59:08.078Z,88.00
2023-02-13T13:01:53.805Z,83.53
2023-02-13T13:04:31.855Z,77.90
2023-02-13T13:07:19.700Z,80.85
2023-02-13T13:09:51.013Z,80.32
2023-02-13T13:12:30.450Z,78.93
2023-02-13T13:15:02.830Z,81.13
2023-02-13T13:17:47.489Z,75.53
2023-02-13T13:20:33.007Z,78.80
2023-02-13T13:23:37.501Z,74.65
2023-02-13T13:26:14.869Z,86.63
2023-02-13T13:28:43.334Z,83.60
2023-02-13T13:31:11.835Z,76.60
2023-02-13T13:33:44.544Z,70.90
2023-02-13T13:36:26.933Z,72.37
2023-02-13T13:39:19.414Z,70.72
2023-02-13T13:41:52.442Z,70.35
2023-02-13T13:44:28.461Z,72.68
2023-02-13T13:46:56.558Z,66.10
2023-02-13T13:49:42.151Z,68.72
2023-02-13T13:52:14.766Z,67.72
2023-02-13T13:54:57.852Z,63.67
2023-02-13T13:57:45.767Z,70.63
2023-02-13T14:00:16.225Z,67.30
2023-02-13T14:02:46.239Z,59.08
2023-02-13T14:05:26.994Z,77.82
2023-02-13T14:13:05.424Z,68.75
2023-02-13T14:15:38.792Z,68.50
2023-02-13T14:18:17.482Z,66.82
2023-02-13T14:20:51.126Z,63.17
2023-02-13T14:23:27.200Z,64.80
2023-02-13T14:26:15.384Z,70.28
2023-02-13T14:29:02.766Z,65.47
2023-02-13T14:31:41.774Z,63.85
2023-02-13T14:34:12.489Z,74.57
2023-02-13T14:36:47.271Z,64.78
2023-02-13T14:39:26.415Z,67.28
2023-02-13T14:41:58.639Z,68.47
2023-02-13T14:44:39.148Z,75.32
2023-02-13T14:47:18.873Z,60.28
2023-02-13T14:49:53.268Z,66.57
2023-02-13T14:52:26.421Z,90.93
2023-02-13T14:55:08.555Z,63.80
2023-02-13T14:57:40.633Z,63.15
2023-02-13T15:00:24.596Z,68.95
2023-02-13T15:02:56.517Z,60.80
2023-02-13T15:05:27.751Z,69.60
2023-02-13T15:08:18.059Z,72.88
2023-02-13T15:10:52.566Z,71.90
2023-02-13T15:13:24.234Z,72.70
2023-02-13T15:15:54.387Z,62.83
2023-02-13T15:18:27.224Z,72.18
2023-02-13T15:21:03.410Z,65.60
2023-02-13T15:23:34.456Z,64.78
2023-02-13T15:26:36.758Z,66.93
2023-02-13T15:29:27.713Z,65.43
2023-02-13T15:32:00.195Z,73.40
2023-02-13T15:34:38.933Z,71.45
2023-02-13T15:37:09.545Z,71.90
2023-02-13T15:39:42.571Z,64.43
2023-02-13T15:42:11.337Z,71.95
2023-02-13T15:44:41.281Z,71.28
2023-02-13T15:47:12.234Z,70.90
2023-02-13T15:49:43.115Z,74.47
2023-02-13T15:52:19.035Z,76.28
2023-02-13T15:54:50.504Z,75.65
2023-02-13T15:57:20.748Z,72.35
2023-02-13T15:59:59.460Z,77.80
2023-02-13T16:02:36.446Z,83.38
2023-02-13T16:05:06.217Z,67.75
2023-02-13T16:07:57.777Z,80.43
2023-02-13T16:10:27.915Z,69.68
2023-02-13T16:12:56.662Z,68.03
2023-02-13T16:15:26.273Z,71.28
2023-02-13T16:17:53.411Z,73.25
2023-02-13T16:20:22.053Z,73.22
2023-02-13T16:22:54.174Z,82.55
2023-02-13T16:25:27.650Z,86.60
2023-02-13T16:27:57.184Z,84.07
2023-02-13T16:30:33.677Z,78.38
2023-02-13T16:33:16.534Z,78.63
2023-02-13T16:35:55.508Z,74.10
2023-02-13T16:38:30.609Z,77.18
2023-02-13T16:41:09.830Z,152.43
2023-02-13T16:43:48.360Z,105.00
2023-02-13T16:46:15.193Z,88.65
2023-02-13T16:48:48.832Z,98.40
2023-02-13T16:51:16.877Z,95.28
2023-02-13T16:53:49.694Z,92.68
2023-02-13T16:56:17.834Z,88.43
2023-02-13T16:58:46.410Z,91.22
2023-02-13T17:01:16.420Z,90.40
2023-02-13T17:03:49.176Z,100.85
2023-02-13T17:06:18.324Z,91.38
2023-02-13T17:08:45.330Z,103.50
2023-02-13T17:11:20.539Z,107.43
2023-02-13T17:13:49.886Z,95.80
2023-02-13T17:16:28.606Z,95.10
2023-02-13T17:18:55.828Z,97.22
2023-02-13T17:21:30.848Z,80.38
2023-02-13T17:24:03.036Z,79.15
2023-02-13T17:26:35.994Z,91.72
2023-02-13T17:29:02.737Z,88.78
2023-02-13T17:31:35.757Z,96.35
2023-02-13T17:34:04.539Z,97.45
2023-02-13T17:36:35.799Z,76.35
2023-02-13T17:39:07.373Z,92.20
2023-02-13T17:41:40.176Z,91.07
2023-02-13T17:44:09.726Z,76.15
2023-02-13T17:46:39.649Z,88.18
2023-02-13T17:49:09.478Z,108.53
2023-02-13T17:51:41.044Z,83.07
2023-02-13T17:56:54.798Z,96.03
2023-02-13T17:59:26.544Z,96.32
2023-02-13T18:02:02.981Z,92.85
2023-02-13T18:04:31.212Z,84.10
2023-02-13T18:07:04.047Z,92.07
2023-02-13T18:09:30.806Z,90.78
2023-02-13T18:12:05.650Z,87.72
2023-02-13T18:14:33.211Z,89.65
2023-02-13T18:17:00.317Z,92.85
2023-02-13T18:19:27.600Z,84.25
2023-02-13T18:21:55.427Z,108.60
2023-02-13T18:24:22.273Z,87.15
2023-02-13T18:26:51.577Z,95.13
2023-02-13T18:29:21.439Z,100.47
2023-02-13T18:31:53.353Z,96.63
2023-02-13T18:34:23.982Z,85.13
2023-02-13T18:36:52.591Z,94.25
2023-02-13T18:39:22.604Z,88.45
2023-02-13T18:41:51.680Z,88.30
2023-02-13T18:44:28.124Z,86.40
2023-02-13T18:47:00.616Z,90.22
2023-02-13T18:49:30.032Z,103.45
2023-02-13T18:52:00.969Z,110.57
2023-02-13T18:54:28.708Z,98.82
2023-02-13T18:57:01.349Z,95.97
2023-02-13T18:59:31.548Z,91.70
2023-02-13T19:02:04.033Z,78.15
2023-02-13T19:04:31.517Z,94.70
2023-02-13T19:07:01.199Z,89.60
2023-02-13T19:09:40.220Z,90.00
2023-02-13T19:12:13.026Z,93.60
2023-02-13T19:14:50.282Z,111.60
2023-02-13T19:17:22.800Z,92.13
2023-02-13T19:19:52.947Z,91.30
2023-02-13T19:22:19.742Z,84.93
2023-02-13T19:24:49.225Z,88.57
2023-02-13T19:27:20.614Z,92.35
2023-02-13T19:29:47.609Z,93.53
2023-02-13T19:32:14.277Z,95.05
2023-02-13T19:34:46.790Z,82.30
2023-02-13T19:37:13.492Z,82.47
2023-02-13T19:39:43.407Z,108.47
2023-02-13T19:42:12.961Z,93.70
2023-02-13T19:44:42.513Z,106.15
2023-02-13T19:47:09.243Z,112.15
2023-02-13T19:49:35.904Z,90.53
2023-02-13T19:52:03.615Z,96.05
2023-02-13T19:54:36.342Z,95.03
2023-02-13T19:57:08.426Z,100.45
2023-02-13T19:59:35.577Z,98.97
2023-02-13T20:02:02.620Z,106.68
2023-02-13T20:04:36.780Z,93.78
2023-02-13T20:09:37.979Z,85.78
2023-02-13T20:12:04.912Z,104.00
2023-02-13T20:14:34.536Z,83.28
2023-02-13T20:17:04.858Z,90.40
2023-02-13T20:19:34.813Z,94.90
2023-02-13T20:22:01.930Z,98.40
2023-02-13T20:24:28.950Z,88.57
2023-02-13T20:27:03.710Z,87.47
2023-02-13T20:29:30.720Z,91.85
2023-02-13T20:32:03.722Z,112.90
2023-02-13T20:34:44.342Z,98.40
2023-02-13T20:37:20.871Z,93.00
2023-02-13T20:39:48.464Z,91.40
2023-02-13T20:42:21.382Z,100.15
2023-02-13T20:44:51.366Z,90.53
2023-02-13T20:47:18.446Z,101.70
2023-02-13T20:49:48.604Z,99.88
2023-02-13T20:52:15.671Z,92.35
2023-02-13T20:54:42.507Z,87.05
2023-02-13T20:57:09.398Z,97.00
2023-02-13T20:59:36.474Z,98.70
2023-02-13T21:02:03.187Z,102.82
2023-02-13T21:04:36.224Z,90.68
2023-02-13T21:07:03.562Z,98.57
2023-02-13T21:09:32.041Z,87.22
2023-02-13T21:12:04.561Z,100.07
2023-02-13T21:14:31.317Z,84.57
2023-02-13T21:17:04.209Z,94.53
2023-02-13T21:19:31.327Z,81.17
2023-02-13T21:22:11.023Z,86.95
2023-02-13T21:24:43.613Z,89.68
2023-02-13T21:27:10.857Z,93.50
2023-02-13T21:29:39.122Z,90.93
2023-02-13T21:32:08.051Z,97.47
2023-02-13T21:34:37.756Z,83.00
2023-02-13T21:37:10.449Z,90.53
2023-02-13T21:39:37.407Z,93.22
2023-02-13T21:42:04.604Z,86.85
2023-02-13T21:44:34.396Z,91.18
2023-02-13T21:47:01.214Z,93.50
2023-02-13T21:49:31.567Z,85.47
2023-02-13T21:52:01.764Z,90.13
2023-02-13T21:54:31.659Z,106.07
2023-02-13T21:56:58.385Z,103.95
2023-02-13T21:59:25.582Z,104.55
2023-02-13T22:01:54.172Z,90.53
2023-02-13T22:04:21.138Z,96.18
2023-02-13T22:06:49.904Z,89.90
2023-02-13T22:09:17.359Z,97.05
2023-02-13T22:11:44.056Z,97.10
2023-02-13T22:14:12.334Z,92.20
2023-02-13T22:16:39.385Z,105.35
2023-02-13T22:19:07.011Z,98.57
2023-02-13T22:21:34.462Z,94.05
2023-02-13T22:24:01.355Z,100.43
2023-02-13T22:26:29.352Z,93.00
2023-02-13T22:28:58.797Z,102.93
2023-02-13T22:31:27.870Z,93.35
2023-02-13T22:34:03.789Z,98.63
2023-02-13T22:36:34.943Z,90.50
2023-02-13T22:39:02.011Z,107.45
2023-02-13T22:41:32.118Z,111.03
2023-02-13T22:44:01.744Z,103.10
2023-02-13T22:46:32.475Z,104.13
2023-02-13T22:48:59.701Z,107.78
2023-02-13T22:51:31.389Z,101.15
2023-02-13T22:53:58.843Z,97.30
2023-02-13T22:56:26.964Z,114.43
2023-02-13T22:58:54.192Z,113.22
2023-02-13T23:01:21.971Z,124.32
2023-02-13T23:03:49.273Z,110.85
2023-02-13T23:06:16.631Z,117.40
2023-02-13T23:08:43.956Z,108.30
2023-02-13T23:11:31.333Z,110.30
2023-02-13T23:13:58.162Z,107.45
2023-02-13T23:16:25.073Z,112.65
2023-02-13T23:18:52.947Z,106.57
2023-02-13T23:21:19.745Z,114.00
2023-02-13T23:23:46.519Z,114.22
2023-02-13T23:26:13.389Z,112.03
2023-02-13T23:28:40.136Z,131.05
2023-02-13T23:31:07.590Z,114.28
2023-02-13T23:33:34.621Z,129.23
2023-02-13T23:36:01.635Z,119.15
2023-02-13T23:38:28.622Z,115.10
2023-02-13T23:40:57.174Z,116.47
2023-02-13T23:43:24.241Z,108.22
2023-02-13T23:45:51.249Z,117.18
2023-02-13T23:48:18.146Z,122.07
2023-02-13T23:50:45.192Z,126.93
2023-02-13T23:53:12.143Z,127.25
2023-02-13T23:55:38.981Z,119.75
2023-02-13T23:58:05.661Z,126.95
